Time;durP1;ratioP1;P1;durP2;ratioP2;P2;SDS_P1;SDS_P2;PMS_P1;PMS_P2;Temp;Humidity;BMP_temperature;BMP_pressure;BME280_temperature;BME280_humidity;BME280_pressure;Samples;Min_cycle;Max_cycle;Signal;HPM_P1;HPM_P2
2021/06/20 00:00:45;;;;;;;8.80;2.90;;;16.50;99.90;;;15.92;96.19;100587.81;4137759;28;20441;-68
2021/06/20 00:02:47;;;;;;;5.30;2.60;;;16.40;99.90;;;15.92;96.53;100581.69;4137972;28;20045;-68
2021/06/20 00:04:48;;;;;;;6.38;2.90;;;16.30;99.90;;;15.80;97.51;100585.91;4136688;28;20026;-68
2021/06/20 00:06:51;;;;;;;4.57;2.72;;;16.30;99.90;;;15.80;97.69;100572.63;4137844;28;20030;-68
2021/06/20 00:08:56;;;;;;;10.27;3.05;;;16.30;99.90;;;15.78;97.83;100574.63;4136284;28;20026;-68
2021/06/20 00:10:58;;;;;;;5.72;2.50;;;16.30;99.90;;;15.84;97.70;100579.19;4136652;28;20026;-69
2021/06/20 00:12:59;;;;;;;8.07;2.40;;;16.20;99.90;;;15.84;97.79;100564.03;4137548;28;20058;-69
2021/06/20 00:15:00;;;;;;;6.10;3.47;;;16.20;99.90;;;15.88;97.43;100575.13;4136569;28;20086;-68
2021/06/20 00:17:01;;;;;;;5.30;2.67;;;16.20;99.90;;;15.85;97.18;100567.53;4137628;28;20030;-68
2021/06/20 00:19:04;;;;;;;9.98;2.97;;;16.20;99.90;;;15.89;97.27;100566.09;4137843;28;20118;-68
2021/06/20 00:21:05;;;;;;;7.57;3.25;;;16.10;99.90;;;15.79;97.31;100557.66;4136560;28;20069;-68
2021/06/20 00:23:07;;;;;;;6.45;2.75;;;16.10;99.90;;;15.81;97.64;100543.16;4137678;28;20045;-68
2021/06/20 00:25:09;;;;;;;4.53;2.92;;;16.10;99.90;;;15.74;97.82;100544.13;4136210;28;20504;-68
2021/06/20 00:27:09;;;;;;;5.32;2.83;;;16.10;99.90;;;15.75;98.28;100545.75;4136140;28;20039;-68
2021/06/20 00:29:10;;;;;;;6.57;2.58;;;16.10;99.90;;;15.73;98.34;100537.16;4152276;28;20540;-68
2021/06/20 00:31:12;;;;;;;5.13;2.72;;;16.00;99.90;;;15.71;98.52;100537.34;4137603;28;20022;-68
2021/06/20 00:33:13;;;;;;;4.93;2.88;;;16.00;99.90;;;15.63;98.96;100534.84;4136292;28;20038;-68
2021/06/20 00:35:16;;;;;;;4.18;3.03;;;16.00;99.90;;;15.80;98.06;100530.06;4136340;28;20482;-68
2021/06/20 00:37:17;;;;;;;7.90;2.88;;;16.00;99.90;;;15.76;97.96;100531.47;4137287;28;20072;-68
2021/06/20 00:39:17;;;;;;;6.35;2.25;;;16.00;99.90;;;15.77;97.79;100525.94;4135986;28;20530;-68
2021/06/20 00:41:18;;;;;;;5.03;2.33;;;16.00;99.90;;;15.76;97.93;100521.66;4137287;28;20041;-68
2021/06/20 00:43:19;;;;;;;6.13;2.25;;;16.00;99.90;;;15.72;97.65;100508.91;4136954;28;20073;-68
2021/06/20 00:45:21;;;;;;;6.53;2.78;;;16.00;99.90;;;15.75;97.81;100521.81;4136221;28;20109;-68
2021/06/20 00:47:22;;;;;;;3.75;2.40;;;16.00;99.90;;;15.57;97.69;100513.50;4137320;28;20482;-68
2021/06/20 00:49:23;;;;;;;9.10;2.85;;;15.90;99.90;;;15.53;98.10;100518.41;4135836;28;20062;-68
2021/06/20 00:51:24;;;;;;;7.45;3.20;;;15.90;99.90;;;15.41;98.33;100526.03;4136081;28;20496;-68
2021/06/20 00:53:25;;;;;;;11.98;3.22;;;15.80;99.90;;;15.27;98.70;100503.03;4137246;28;20066;-68
2021/06/20 00:55:37;;;;;;;7.90;2.83;;;15.80;99.90;;;15.16;99.38;100511.53;4135976;28;20045;-68
2021/06/20 00:57:38;;;;;;;7.18;2.70;;;15.70;99.90;;;15.15;99.86;100512.53;4135783;28;20022;-68
2021/06/20 00:59:39;;;;;;;6.53;2.85;;;15.60;99.90;;;15.11;100.00;100513.97;4135987;28;20054;-68
2021/06/20 01:01:40;;;;;;;6.72;3.05;;;15.60;99.90;;;15.08;100.00;100514.34;4135765;28;20081;-68
2021/06/20 01:03:41;;;;;;;5.90;3.03;;;15.50;99.90;;;15.18;100.00;100520.13;4136946;28;20065;-68
2021/06/20 01:05:43;;;;;;;6.88;3.15;;;15.50;99.90;;;15.22;99.88;100520.59;4137104;28;20081;-68
2021/06/20 01:07:44;;;;;;;6.45;3.55;;;15.50;99.90;;;15.17;100.00;100520.34;4137031;28;20041;-68
2021/06/20 01:09:45;;;;;;;5.10;3.05;;;15.50;99.90;;;15.10;100.00;100517.63;4136915;28;20034;-68
2021/06/20 01:11:46;;;;;;;6.78;3.33;;;15.50;99.90;;;15.16;100.00;100508.88;4135311;28;20397;-68
2021/06/20 01:13:48;;;;;;;5.07;3.10;;;15.50;99.90;;;15.06;100.00;100491.59;4136914;28;20022;-68
2021/06/20 01:15:50;;;;;;;5.47;2.85;;;15.50;99.90;;;15.18;100.00;100506.84;4136869;28;20034;-68
2021/06/20 01:17:51;;;;;;;6.72;2.70;;;15.50;99.90;;;15.25;99.68;100506.91;4135592;28;20502;-68
2021/06/20 01:19:52;;;;;;;5.70;2.63;;;15.50;99.90;;;15.28;99.87;100490.59;4136641;28;20034;-68
2021/06/20 01:21:53;;;;;;;5.63;2.55;;;15.50;99.90;;;15.29;99.89;100489.59;4136831;28;20089;-68
2021/06/20 01:23:54;;;;;;;6.55;2.60;;;15.50;99.90;;;15.27;100.00;100489.75;4136759;28;20030;-68
2021/06/20 01:25:57;;;;;;;5.68;2.50;;;15.50;99.90;;;15.25;100.00;100488.31;4136557;28;20037;-68
2021/06/20 01:28:08;;;;;;;4.20;2.40;;;15.50;99.90;;;15.28;99.60;100483.44;4136253;28;20034;-68
2021/06/20 01:30:22;;;;;;;6.47;2.50;;;15.50;99.90;;;15.27;99.25;100481.78;4136609;28;20046;-68
2021/06/20 01:32:24;;;;;;;6.18;2.20;;;15.50;99.90;;;15.21;99.43;100477.25;4136499;28;20053;-68
2021/06/20 01:34:24;;;;;;;4.00;2.40;;;15.50;99.90;;;15.19;99.39;100483.75;4136674;28;20045;-68
2021/06/20 01:36:25;;;;;;;5.88;2.75;;;15.50;99.90;;;15.17;99.01;100467.19;4136340;28;20065;-68
2021/06/20 01:38:26;;;;;;;4.20;2.60;;;15.50;99.90;;;15.24;98.94;100476.84;4136574;28;20061;-67
2021/06/20 01:40:27;;;;;;;6.43;2.60;;;15.50;99.90;;;15.29;98.37;100477.09;4135135;28;20066;-68
2021/06/20 01:42:28;;;;;;;5.70;2.40;;;15.50;99.90;;;15.21;98.63;100482.56;4136089;28;20093;-68
2021/06/20 01:44:29;;;;;;;8.48;3.15;;;15.50;99.90;;;15.27;98.80;100492.41;4135294;28;20030;-68
2021/06/20 01:46:30;;;;;;;4.20;2.35;;;15.50;99.90;;;15.24;98.82;100476.84;4136437;28;20023;-68
2021/06/20 01:48:31;;;;;;;5.32;2.60;;;15.50;99.90;;;15.11;99.29;100474.09;4136309;28;20034;-68
2021/06/20 01:50:34;;;;;;;6.78;2.88;;;15.50;99.90;;;15.17;99.78;100486.59;4134621;28;20031;-68
2021/06/20 01:52:36;;;;;;;7.30;2.40;;;15.50;99.90;;;15.28;99.38;100494.06;4134927;28;20026;-67
2021/06/20 01:54:50;;;;;;;6.80;2.60;;;15.50;99.90;;;15.29;99.51;100501.00;4136326;28;20026;-68
2021/06/20 01:56:50;;;;;;;6.50;2.80;;;15.60;99.90;;;15.29;99.75;100489.59;4135756;28;20076;-68
2021/06/20 01:58:51;;;;;;;8.95;3.42;;;15.60;99.90;;;15.22;100.00;100497.50;4136188;28;20030;-68
2021/06/20 02:00:56;;;;;;;10.45;3.40;;;15.60;99.90;;;15.24;100.00;100495.47;4134864;28;20038;-68
2021/06/20 02:03:04;;;;;;;8.43;3.50;;;15.70;99.90;;;15.36;100.00;100491.25;4136257;28;20030;-68
2021/06/20 02:05:05;;;;;;;7.43;3.22;;;15.70;99.90;;;15.52;99.32;100494.69;4136205;28;20033;-68
2021/06/20 02:07:09;;;;;;;5.45;2.45;;;15.80;99.90;;;15.41;99.96;100483.53;4136161;28;20045;-68
2021/06/20 02:09:10;;;;;;;8.07;2.83;;;15.80;99.90;;;15.37;100.00;100492.91;4136154;28;20022;-68
2021/06/20 02:11:11;;;;;;;8.60;3.53;;;15.80;99.90;;;15.27;100.00;100491.59;4136170;28;20037;-68
2021/06/20 02:13:12;;;;;;;9.00;3.67;;;15.80;99.90;;;15.16;100.00;100494.78;4135751;28;20087;-68
2021/06/20 02:15:16;;;;;;;7.75;3.72;;;15.80;99.90;;;15.10;100.00;100485.75;4134767;28;20105;-68
2021/06/20 02:17:32;;;;;;;11.27;3.97;;;15.70;99.90;;;15.22;100.00;100489.53;4136056;28;20023;-68
2021/06/20 02:19:33;;;;;;;6.78;3.72;;;15.70;99.90;;;15.17;100.00;100480.50;4134828;28;20077;-68
2021/06/20 02:21:34;;;;;;;9.70;3.67;;;15.70;99.90;;;15.16;100.00;100479.66;4134661;28;20501;-68
2021/06/20 02:23:35;;;;;;;13.00;3.83;;;15.70;99.90;;;15.18;100.00;100472.31;4135799;28;20034;-68
2021/06/20 02:25:36;;;;;;;7.32;3.40;;;15.70;99.90;;;15.29;100.00;100481.59;4167393;28;20059;-68
2021/06/20 02:27:37;;;;;;;9.32;3.53;;;15.70;99.90;;;15.37;100.00;100484.94;4134441;28;20034;-68
2021/06/20 02:29:40;;;;;;;9.27;3.60;;;15.70;99.90;;;15.22;100.00;100478.91;4135762;28;20117;-68
2021/06/20 02:31:41;;;;;;;8.50;3.20;;;15.70;99.90;;;15.32;100.00;100486.53;4134464;28;20034;-68
2021/06/20 02:33:42;;;;;;;6.43;3.03;;;15.70;99.90;;;15.35;100.00;100472.88;4135912;28;20026;-68
2021/06/20 02:35:43;;;;;;;5.32;3.00;;;15.70;99.90;;;15.38;100.00;100470.63;4135824;28;20037;-68
2021/06/20 02:37:46;;;;;;;9.55;3.58;;;15.70;99.90;;;15.39;100.00;100474.94;4135802;28;20446;-68
2021/06/20 02:39:47;;;;;;;5.30;2.78;;;15.70;99.90;;;15.40;100.00;100460.63;4134280;28;20059;-68
2021/06/20 02:41:50;;;;;;;4.13;2.60;;;15.70;99.90;;;15.39;100.00;100461.63;4135467;28;20027;-68
2021/06/20 02:43:51;;;;;;;5.38;2.78;;;15.70;99.90;;;15.45;100.00;100460.88;4134369;28;20026;-68
2021/06/20 02:45:52;;;;;;;10.20;3.13;;;15.70;99.90;;;15.50;99.43;100455.81;4150791;28;20468;-68
2021/06/20 02:47:53;;;;;;;6.45;3.20;;;15.70;99.90;;;15.50;99.28;100455.00;4135684;28;20100;-68
2021/06/20 02:49:54;;;;;;;7.90;3.33;;;15.70;99.90;;;15.37;99.33;100439.75;4135590;28;20109;-68
2021/06/20 02:51:55;;;;;;;6.05;2.95;;;15.70;99.90;;;15.47;99.43;100456.19;4135691;28;20485;-68
2021/06/20 02:53:56;;;;;;;7.30;2.88;;;15.70;99.90;;;15.37;99.52;100445.06;4135653;28;20037;-68
2021/06/20 02:55:57;;;;;;;5.43;3.10;;;15.70;99.90;;;15.38;99.80;100429.94;4134195;28;20402;-68
2021/06/20 02:57:58;;;;;;;4.60;2.75;;;15.70;99.90;;;15.45;99.46;100444.91;4134185;28;20029;-68
2021/06/20 03:00:03;;;;;;;9.55;3.65;;;15.70;99.90;;;15.32;99.38;100441.34;4135657;28;20081;-68
2021/06/20 03:02:04;;;;;;;11.13;3.47;;;15.70;99.90;;;15.36;99.85;100451.38;4136010;28;20121;-68
2021/06/20 03:04:06;;;;;;;5.07;2.63;;;15.70;99.90;;;15.26;99.93;100447.44;4138688;28;20031;-68
2021/06/20 03:06:07;;;;;;;7.95;3.92;;;15.70;99.90;;;15.27;99.94;100446.41;4138743;28;20027;-68
2021/06/20 03:08:08;;;;;;;7.03;3.45;;;15.60;99.90;;;15.15;100.00;100440.81;4138880;28;20542;-68
2021/06/20 03:10:10;;;;;;;6.85;3.40;;;15.60;99.90;;;15.22;100.00;100447.00;4138691;28;20027;-68
2021/06/20 03:12:12;;;;;;;9.52;2.92;;;15.50;99.90;;;15.17;100.00;100430.00;4138496;28;20027;-68
2021/06/20 03:14:14;;;;;;;8.05;3.15;;;15.60;99.90;;;15.26;100.00;100437.63;4137648;28;20029;-68
2021/06/20 03:16:17;;;;;;;7.25;3.53;;;15.60;99.90;;;15.28;100.00;100440.91;4138743;28;20038;-67
2021/06/20 03:18:18;;;;;;;8.63;3.20;;;15.60;99.90;;;15.36;100.00;100434.63;4138872;28;20486;-68
2021/06/20 03:20:23;;;;;;;7.68;3.58;;;15.60;99.90;;;15.27;100.00;100433.94;4138721;28;20034;-68
2021/06/20 03:22:24;;;;;;;7.55;3.28;;;15.60;99.90;;;15.20;100.00;100432.28;4137608;28;20453;-71
2021/06/20 03:24:25;;;;;;;10.63;4.20;;;15.60;99.90;;;15.20;100.00;100425.09;4138632;28;20038;-68
2021/06/20 03:26:27;;;;;;;5.22;3.13;;;15.50;99.90;;;15.19;100.00;100434.09;4138196;28;20038;-68
2021/06/20 03:28:28;;;;;;;7.90;3.20;;;15.50;99.90;;;15.17;100.00;100428.13;4137414;28;20209;-68
2021/06/20 03:30:29;;;;;;;12.98;4.50;;;15.50;99.90;;;15.06;100.00;100420.72;4138491;28;20478;-68
2021/06/20 03:32:30;;;;;;;7.65;3.45;;;15.50;99.90;;;15.04;100.00;100413.94;4138439;28;20030;-68
2021/06/20 03:34:32;;;;;;;8.98;3.63;;;15.50;99.90;;;15.09;100.00;100417.66;4138426;28;20552;-68
2021/06/20 03:36:33;;;;;;;7.60;3.50;;;15.40;99.90;;;14.99;100.00;100411.06;4136998;28;20029;-68
2021/06/20 03:38:34;;;;;;;6.85;3.72;;;15.50;99.90;;;15.08;100.00;100409.91;4137219;28;20023;-68
2021/06/20 03:40:35;;;;;;;6.53;3.03;;;15.40;99.90;;;15.05;100.00;100397.84;4138146;28;20049;-67
2021/06/20 03:42:37;;;;;;;8.75;3.00;;;15.40;99.90;;;15.01;100.00;100391.25;4136691;28;20027;-68
2021/06/20 03:44:38;;;;;;;7.75;2.90;;;15.40;99.90;;;15.11;100.00;100410.34;4136896;28;20078;-68
2021/06/20 03:46:39;;;;;;;9.00;3.60;;;15.40;99.90;;;15.08;100.00;100397.44;4138275;28;20101;-68
2021/06/20 03:48:41;;;;;;;7.95;3.08;;;15.40;99.90;;;15.04;100.00;100398.84;4138332;28;20033;-68
2021/06/20 03:50:42;;;;;;;8.50;3.55;;;15.40;99.90;;;15.01;100.00;100387.78;4136903;28;20033;-67
2021/06/20 03:52:43;;;;;;;7.88;3.83;;;15.40;99.90;;;15.12;100.00;100397.84;4136795;28;20105;-68
2021/06/20 03:54:49;;;;;;;7.95;3.22;;;15.40;99.90;;;15.03;100.00;100389.22;4138216;28;20046;-67
2021/06/20 03:56:53;;;;;;;8.73;3.83;;;15.40;99.90;;;14.94;100.00;100390.38;4136746;28;20029;-68
2021/06/20 03:58:54;;;;;;;12.73;4.00;;;15.30;99.90;;;14.93;100.00;100389.53;4136933;28;20026;-67
2021/06/20 04:00:55;;;;;;;8.15;3.10;;;15.30;99.90;;;14.96;100.00;100391.03;4137863;28;20069;-67
2021/06/20 04:02:56;;;;;;;5.95;3.17;;;15.30;99.90;;;15.04;100.00;100390.03;4138038;28;20114;-67
2021/06/20 04:04:56;;;;;;;7.45;3.13;;;15.30;99.90;;;15.00;100.00;100389.59;4138109;28;20029;-67
2021/06/20 04:06:57;;;;;;;10.35;3.20;;;15.30;99.90;;;15.03;100.00;100394.53;4137824;28;20031;-67
2021/06/20 04:08:58;;;;;;;4.85;2.83;;;15.30;99.90;;;15.01;100.00;100401.88;4138037;28;20037;-67
2021/06/20 04:10:59;;;;;;;8.07;3.15;;;15.40;99.90;;;15.04;100.00;100401.50;4137919;28;20023;-68
2021/06/20 04:13:00;;;;;;;11.05;3.95;;;15.40;99.90;;;15.05;100.00;100391.69;4136936;28;20050;-68
2021/06/20 04:15:01;;;;;;;6.90;3.05;;;15.40;99.90;;;15.06;100.00;100395.97;4137807;28;20080;-68
2021/06/20 04:17:02;;;;;;;7.43;4.03;;;15.40;99.90;;;15.03;100.00;100381.25;4136429;28;20065;-67
2021/06/20 04:19:03;;;;;;;9.38;3.20;;;15.40;99.90;;;15.11;100.00;100402.38;4137804;28;20034;-68
2021/06/20 04:21:04;;;;;;;7.40;3.13;;;15.40;99.90;;;15.11;100.00;100397.06;4137707;28;20042;-68
2021/06/20 04:23:06;;;;;;;8.57;2.90;;;15.50;99.90;;;15.18;100.00;100397.91;4137618;28;20166;-68
2021/06/20 04:25:08;;;;;;;4.78;3.25;;;15.50;99.90;;;15.15;100.00;100400.97;4137306;28;20045;-68
2021/06/20 04:27:09;;;;;;;11.27;3.25;;;15.50;99.90;;;15.10;100.00;100408.69;4137478;28;20525;-68
2021/06/20 04:29:10;;;;;;;7.32;3.45;;;15.50;99.90;;;15.12;100.00;100392.53;4137502;28;20033;-68
2021/06/20 04:31:11;;;;;;;5.82;3.10;;;15.50;99.90;;;15.13;100.00;100405.66;4120223;28;20120;-68
2021/06/20 04:33:12;;;;;;;10.10;3.47;;;15.50;99.90;;;15.16;100.00;100393.81;4137337;28;20031;-68
2021/06/20 04:35:14;;;;;;;5.28;3.22;;;15.50;99.90;;;15.12;100.00;100385.41;4137575;28;20030;-67
2021/06/20 04:37:15;;;;;;;13.73;3.95;;;15.50;99.90;;;15.22;100.00;100393.03;4136265;28;20091;-68
2021/06/20 04:39:16;;;;;;;9.98;3.47;;;15.50;99.90;;;15.22;100.00;100385.06;4137359;28;20429;-68
2021/06/20 04:41:19;;;;;;;5.32;3.05;;;15.60;99.90;;;15.33;100.00;100390.66;4137179;28;20073;-67
2021/06/20 04:43:39;;;;;;;9.93;3.80;;;15.60;99.90;;;15.40;100.00;100391.53;4137568;28;20041;-68
2021/06/20 04:45:40;;;;;;;6.00;3.60;;;15.70;99.90;;;15.35;100.00;100391.28;4137360;28;20034;-67
2021/06/20 04:47:42;;;;;;;7.03;2.60;;;15.70;99.90;;;15.27;100.00;100383.47;4137232;28;20057;-67
2021/06/20 04:49:44;;;;;;;5.55;3.08;;;15.70;99.90;;;15.35;100.00;100391.28;4137332;28;20041;-67
2021/06/20 04:51:45;;;;;;;7.55;2.85;;;15.80;99.90;;;15.39;99.69;100376.59;4136316;28;20533;-68
2021/06/20 04:53:47;;;;;;;10.18;3.80;;;15.80;99.90;;;15.32;100.00;100394.31;4136047;28;20030;-68
2021/06/20 04:55:47;;;;;;;9.55;3.70;;;15.80;99.90;;;15.37;100.00;100391.91;4136051;28;20081;-67
2021/06/20 04:57:48;;;;;;;5.93;3.47;;;15.90;99.90;;;15.41;100.00;100393.16;4136970;28;20026;-68
2021/06/20 05:00:00;;;;;;;10.65;4.18;;;15.90;99.90;;;15.38;100.00;100396.19;4137178;28;20037;-68
2021/06/20 05:02:01;;;;;;;3.58;2.72;;;15.90;99.90;;;15.40;100.00;100396.84;4137105;28;20026;-68
2021/06/20 05:04:03;;;;;;;8.52;2.97;;;15.90;99.90;;;15.55;99.81;100388.78;4135753;28;20468;-68
2021/06/20 05:06:04;;;;;;;7.38;3.33;;;16.00;99.90;;;15.61;99.78;100389.81;4137161;28;20437;-68
2021/06/20 05:08:05;;;;;;;6.82;3.40;;;16.00;99.90;;;15.61;100.00;100388.00;4135948;28;20121;-68
2021/06/20 05:10:07;;;;;;;6.18;2.95;;;16.10;99.90;;;15.65;100.00;100377.78;4135823;28;20034;-68
2021/06/20 05:12:09;;;;;;;7.78;3.17;;;16.10;99.90;;;15.78;99.74;100386.63;4136641;28;20022;-68
2021/06/20 05:14:10;;;;;;;4.60;2.47;;;16.20;99.90;;;15.76;99.75;100382.53;4135842;28;20033;-68
2021/06/20 05:16:11;;;;;;;9.80;3.70;;;16.20;99.90;;;15.77;99.34;100368.22;4135931;28;20023;-68
2021/06/20 05:18:12;;;;;;;7.00;2.92;;;16.30;99.90;;;15.91;99.49;100392.00;4136876;28;20109;-68
2021/06/20 05:20:13;;;;;;;12.63;3.88;;;16.30;99.90;;;15.97;99.31;100385.91;4136771;28;20033;-68
2021/06/20 05:22:14;;;;;;;5.88;3.17;;;16.40;99.90;;;15.97;99.24;100387.72;4135807;28;20030;-68
2021/06/20 05:24:15;;;;;;;6.55;3.08;;;16.40;99.90;;;15.99;99.25;100391.81;4136059;28;20498;-68
2021/06/20 05:26:16;;;;;;;7.00;3.40;;;16.50;99.90;;;15.93;98.92;100387.31;4136427;28;20097;-68
2021/06/20 05:28:18;;;;;;;8.10;2.80;;;16.50;99.90;;;16.03;98.65;100390.41;4135464;28;20061;-68
2021/06/20 05:30:20;;;;;;;9.60;3.45;;;16.50;99.90;;;16.03;98.92;100394.91;4136686;28;20030;-68
2021/06/20 05:32:21;;;;;;;8.77;3.70;;;16.60;99.90;;;16.15;98.25;100384.50;4136721;28;20018;-68
2021/06/20 05:34:21;;;;;;;7.10;3.05;;;16.60;99.90;;;16.21;98.43;100384.53;4135405;28;20122;-68
2021/06/20 05:36:22;;;;;;;8.07;3.63;;;16.70;99.90;;;16.24;98.64;100383.31;4136436;28;20085;-68
2021/06/20 05:38:23;;;;;;;7.32;2.90;;;16.80;99.90;;;16.28;98.43;100371.22;4136847;28;20057;-67
2021/06/20 05:40:24;;;;;;;7.68;3.78;;;16.80;99.90;;;16.36;97.86;100382.53;4136379;28;20050;-68
2021/06/20 05:42:25;;;;;;;6.28;3.47;;;16.90;99.90;;;16.39;97.80;100382.13;4136126;28;20517;-68
2021/06/20 05:44:26;;;;;;;8.98;3.13;;;16.90;99.90;;;16.38;97.23;100385.78;4136344;28;20057;-68
2021/06/20 05:46:27;;;;;;;7.32;3.17;;;17.00;99.90;;;16.49;96.94;100384.34;4136485;28;20034;-68
2021/06/20 05:48:28;;;;;;;7.15;3.20;;;17.10;99.90;;;16.56;96.45;100387.88;4135189;28;20026;-68
2021/06/20 05:50:29;;;;;;;8.40;2.75;;;17.10;99.90;;;16.61;96.15;100389.97;4135182;28;20529;-68
2021/06/20 05:52:30;;;;;;;7.38;3.20;;;17.20;99.90;;;16.63;96.04;100394.06;4136197;28;20116;-68
2021/06/20 05:54:31;;;;;;;10.80;3.50;;;17.30;99.90;;;16.64;96.28;100400.19;4136473;28;20080;-68
2021/06/20 05:56:32;;;;;;;5.95;3.30;;;17.30;99.90;;;16.69;96.25;100393.25;4135978;28;20034;-68
2021/06/20 05:58:33;;;;;;;6.97;3.20;;;17.40;99.90;;;16.82;95.47;100387.06;4136224;28;20027;-68
2021/06/20 06:00:34;;;;;;;6.65;3.25;;;17.40;99.90;;;16.96;93.33;100384.22;4135989;28;20496;-68
2021/06/20 06:02:36;;;;;;;8.18;3.92;;;17.50;99.90;;;16.98;93.79;100384.00;4136384;28;20034;-68
2021/06/20 06:04:38;;;;;;;6.40;2.88;;;17.50;99.90;;;16.96;94.20;100386.06;4136085;28;20033;-68
2021/06/20 06:06:39;;;;;;;11.27;3.17;;;17.50;99.90;;;16.87;94.22;100379.31;4136290;28;20053;-68
2021/06/20 06:08:39;;;;;;;8.07;3.22;;;17.50;99.90;;;16.74;94.40;100380.13;4136000;28;20026;-68
2021/06/20 06:10:41;;;;;;;6.15;2.40;;;17.50;99.90;;;16.75;95.03;100380.94;4151137;28;20029;-68
2021/06/20 06:12:42;;;;;;;7.72;2.60;;;17.40;99.90;;;16.76;95.16;100377.25;4134613;28;20026;-68
2021/06/20 06:14:42;;;;;;;6.43;2.67;;;17.40;99.90;;;16.85;95.33;100387.50;4134803;28;20161;-68
2021/06/20 06:16:43;;;;;;;5.55;3.47;;;17.50;99.90;;;16.88;95.20;100386.25;4134527;28;20022;-68
2021/06/20 06:18:44;;;;;;;5.78;3.00;;;17.50;99.90;;;16.92;95.60;100387.50;4134800;28;20139;-68
2021/06/20 06:20:45;;;;;;;7.05;3.10;;;17.60;99.90;;;16.70;95.81;100383.38;4135888;28;20034;-67
2021/06/20 06:22:47;;;;;;;7.05;3.72;;;17.60;99.90;;;16.76;95.56;100372.72;4135838;28;20034;-68
2021/06/20 06:24:49;;;;;;;10.25;3.10;;;17.50;99.90;;;16.81;95.28;100372.97;4134561;28;20430;-68
2021/06/20 06:26:50;;;;;;;8.15;3.03;;;17.50;99.90;;;16.85;95.58;100376.00;4122844;28;20033;-68
2021/06/20 06:28:51;;;;;;;5.57;3.00;;;17.50;99.90;;;16.85;95.73;100371.50;4134639;28;20026;-68
2021/06/20 06:30:52;;;;;;;7.97;2.67;;;17.50;99.90;;;16.89;95.78;100372.75;4135907;28;20030;-68
2021/06/20 06:32:53;;;;;;;10.13;3.35;;;17.60;99.90;;;17.04;95.67;100372.53;4135755;28;20018;-68
2021/06/20 06:34:54;;;;;;;6.38;3.33;;;17.70;99.90;;;17.00;95.73;100369.44;4150656;28;20116;-68
2021/06/20 06:36:55;;;;;;;6.38;3.13;;;17.70;99.90;;;17.08;95.74;100366.56;4135545;28;20034;-67
2021/06/20 06:38:56;;;;;;;12.13;3.63;;;17.80;99.90;;;17.06;95.12;100357.13;4135795;28;20076;-71
2021/06/20 06:40:57;;;;;;;5.35;3.28;;;17.80;99.90;;;17.10;95.47;100356.53;4135729;28;20105;-68
2021/06/20 06:42:58;;;;;;;7.68;3.03;;;17.80;99.90;;;17.24;95.51;100362.66;4135245;28;20026;-68
2021/06/20 06:45:00;;;;;;;6.50;3.35;;;17.90;99.90;;;17.01;95.58;100352.44;4135796;28;20468;-68
2021/06/20 06:47:01;;;;;;;5.55;2.92;;;17.90;99.90;;;17.25;94.48;100355.47;4135686;28;20045;-67
2021/06/20 06:49:02;;;;;;;6.65;3.53;;;17.90;99.90;;;17.40;94.05;100353.38;4135583;28;20027;-67
2021/06/20 06:51:03;;;;;;;7.15;2.80;;;18.00;99.90;;;17.48;94.20;100353.16;4134236;28;20034;-68
2021/06/20 06:53:04;;;;;;;5.68;2.80;;;18.10;99.90;;;17.51;93.72;100344.72;4135796;28;20026;-68
2021/06/20 06:55:09;;;;;;;7.05;3.28;;;18.20;99.90;;;17.58;93.18;100351.72;4135954;28;20340;-68
2021/06/20 06:57:10;;;;;;;7.57;3.00;;;18.30;99.90;;;17.61;93.41;100347.81;4135360;28;20045;-68
2021/06/20 06:59:12;;;;;;;7.72;2.83;;;18.40;99.90;;;17.66;92.87;100332.81;4135581;28;20030;-68
2021/06/20 07:01:13;;;;;;;6.13;2.40;;;18.50;99.90;;;17.79;92.58;100336.44;4134517;28;20026;-68
2021/06/20 07:03:14;;;;;;;6.93;2.50;;;18.50;99.90;;;17.85;92.63;100332.94;4134552;28;20104;-68
2021/06/20 07:05:15;;;;;;;12.13;4.10;;;18.60;99.90;;;17.87;92.48;100341.53;4118497;28;20142;-68
2021/06/20 07:07:16;;;;;;;6.40;2.75;;;18.70;99.90;;;17.96;91.58;100332.25;4135406;28;20034;-68
2021/06/20 07:09:19;;;;;;;12.63;3.70;;;18.80;99.90;;;18.20;89.65;100331.47;4134382;28;20121;-68
2021/06/20 07:11:21;;;;;;;5.65;2.55;;;18.90;99.90;;;18.12;90.21;100329.06;4135332;28;20039;-68
2021/06/20 07:13:22;;;;;;;5.85;2.92;;;19.00;99.90;;;18.21;90.78;100333.13;4134448;28;20034;-68
2021/06/20 07:15:24;;;;;;;8.07;2.45;;;19.10;99.90;;;18.27;90.89;100334.94;4150369;28;20057;-68
2021/06/20 07:17:25;;;;;;;5.85;2.58;;;19.10;99.90;;;18.24;91.35;100333.53;4135610;28;20528;-68
2021/06/20 07:19:25;;;;;;;4.63;2.40;;;19.10;99.90;;;18.30;90.52;100334.50;4135639;28;20123;-68
2021/06/20 07:21:26;;;;;;;5.53;2.72;;;19.10;99.90;;;18.38;90.82;100342.25;4134301;28;20030;-68
2021/06/20 07:23:27;;;;;;;6.22;2.78;;;19.20;99.90;;;18.44;90.61;100333.38;4135381;28;20490;-68
2021/06/20 07:25:28;;;;;;;8.75;3.45;;;19.20;99.90;;;18.59;89.34;100330.41;4135530;28;20039;-68
2021/06/20 07:27:29;;;;;;;7.05;2.65;;;19.40;99.90;;;18.73;89.29;100337.28;4135200;28;20445;-68
2021/06/20 07:29:30;;;;;;;5.72;2.45;;;19.50;99.90;;;18.87;86.53;100340.66;4135373;28;20037;-68
2021/06/20 07:31:31;;;;;;;6.70;2.40;;;19.60;99.90;;;18.97;87.20;100338.28;4150299;28;20417;-68
2021/06/20 07:33:32;;;;;;;7.57;2.80;;;19.80;99.90;;;18.86;86.94;100339.00;4135421;28;20030;-68
2021/06/20 07:35:33;;;;;;;10.32;3.00;;;19.80;99.90;;;18.86;86.58;100341.69;4135416;28;20030;-68
2021/06/20 07:37:35;;;;;;;7.07;2.72;;;19.90;99.90;;;19.01;86.80;100326.94;4134223;28;20105;-68
2021/06/20 07:39:36;;;;;;;10.52;3.15;;;19.90;99.90;;;19.11;86.67;100337.13;4135118;28;20053;-68
2021/06/20 07:41:37;;;;;;;9.60;3.65;;;20.00;99.90;;;19.15;87.02;100343.66;4135085;28;20065;-68
2021/06/20 07:43:38;;;;;;;7.20;2.60;;;20.10;99.90;;;19.24;84.75;100340.47;4135042;28;20084;-68
2021/06/20 07:45:40;;;;;;;8.00;2.65;;;20.20;99.90;;;19.24;84.59;100336.97;4135258;28;20402;-68
2021/06/20 07:47:42;;;;;;;10.05;2.83;;;20.20;99.90;;;19.15;84.06;100349.81;4135982;28;20040;-68
2021/06/20 07:49:44;;;;;;;11.60;4.18;;;20.20;99.90;;;18.98;85.59;100356.78;4138226;28;20035;-68
2021/06/20 07:51:46;;;;;;;6.55;3.05;;;20.10;99.90;;;18.83;87.19;100352.81;4138165;28;20030;-68
2021/06/20 07:53:47;;;;;;;7.22;2.60;;;19.90;99.90;;;18.74;88.29;100363.78;4137013;28;20437;-68
2021/06/20 07:55:48;;;;;;;9.25;3.42;;;19.80;99.90;;;18.71;88.97;100364.22;4136898;28;20123;-68
2021/06/20 07:57:49;;;;;;;4.53;2.33;;;19.70;99.90;;;18.70;88.92;100351.88;4138103;28;20018;-68
2021/06/20 07:59:50;;;;;;;9.20;3.42;;;19.60;99.90;;;18.84;88.12;100357.97;4138391;28;20037;-68
2021/06/20 08:01:51;;;;;;;6.97;2.83;;;19.70;99.90;;;18.87;88.52;100356.69;4136998;28;20026;-68
2021/06/20 08:03:52;;;;;;;5.20;2.30;;;19.60;99.90;;;18.86;89.27;100360.41;4136832;28;20149;-68
2021/06/20 08:05:52;;;;;;;4.93;2.63;;;19.70;99.90;;;18.83;88.40;100352.81;4138170;28;20031;-68
2021/06/20 08:07:53;;;;;;;8.20;2.65;;;19.70;99.90;;;18.87;88.71;100354.03;4138192;28;20072;-68
2021/06/20 08:09:56;;;;;;;9.45;2.78;;;19.60;99.90;;;18.83;88.79;100350.97;4137745;28;20030;-68
2021/06/20 08:11:57;;;;;;;6.55;2.83;;;19.60;99.90;;;18.73;88.82;100342.63;4136200;28;20038;-68
2021/06/20 08:13:59;;;;;;;7.05;2.53;;;19.60;99.90;;;18.76;89.40;100344.84;4137827;28;20019;-68
2021/06/20 08:16:00;;;;;;;6.93;2.72;;;19.60;99.90;;;18.76;89.48;100334.16;4137873;28;20026;-68
2021/06/20 08:18:01;;;;;;;6.28;2.47;;;19.60;99.90;;;18.82;89.16;100340.50;4136545;28;20027;-68
2021/06/20 08:20:06;;;;;;;7.57;2.78;;;19.60;99.90;;;18.82;88.87;100337.84;4136398;28;20100;-68
2021/06/20 08:22:09;;;;;;;12.65;2.38;;;19.60;99.90;;;18.68;89.36;100321.91;4120439;28;20039;-68
2021/06/20 08:24:11;;;;;;;6.43;2.67;;;19.60;99.90;;;18.70;89.73;100327.03;4136331;28;20096;-68